Time;durP1;ratioP1;P1;durP2;ratioP2;P2;SDS_P1;SDS_P2;PMS_P1;PMS_P2;Temp;Humidity;BMP_temperature;BMP_pressure;BME280_temperature;BME280_humidity;BME280_pressure;Samples;Min_cycle;Max_cycle;Signal;HPM_P1;HPM_P2
2024/04/08 00:02:18;;;;;;;13.60;9.60;;;;;;;10.50;100.00;101626.19;105730;1256;61946;-76
2024/04/08 00:04:46;;;;;;;16.80;9.20;;;;;;;10.46;100.00;101620.77;105735;1257;60441;-80
2024/04/08 00:07:12;;;;;;;12.00;8.40;;;;;;;10.47;100.00;101626.32;105886;1254;72569;-79
2024/04/08 00:09:39;;;;;;;10.70;8.10;;;;;;;10.45;100.00;101627.45;105678;1256;63848;-78
2024/04/08 00:12:06;;;;;;;11.00;8.20;;;;;;;10.43;100.00;101624.05;105788;1256;72499;-79
2024/04/08 00:14:32;;;;;;;11.10;7.60;;;;;;;10.40;100.00;101621.05;105747;1256;60436;-78
2024/04/08 00:16:59;;;;;;;13.70;8.20;;;;;;;10.38;100.00;101620.08;105639;1255;60491;-78
2024/04/08 00:19:26;;;;;;;12.20;8.30;;;;;;;10.36;100.00;101615.60;105806;1257;73648;-79
2024/04/08 00:21:52;;;;;;;14.90;8.40;;;;;;;10.35;100.00;101610.77;105791;1256;63962;-78
2024/04/08 00:24:19;;;;;;;12.90;8.30;;;;;;;10.34;100.00;101609.08;105786;1254;71172;-79
2024/04/08 00:26:46;;;;;;;9.70;7.80;;;;;;;10.33;100.00;101608.92;105804;1254;60837;-78
2024/04/08 00:29:14;;;;;;;13.60;7.60;;;;;;;10.32;100.00;101607.74;105842;1254;60433;-79
2024/04/08 00:31:43;;;;;;;13.00;8.90;;;;;;;10.30;100.00;101603.45;105674;1257;73693;-78
2024/04/08 00:34:10;;;;;;;11.10;8.30;;;;;;;10.29;100.00;101603.85;105754;1254;62385;-78
2024/04/08 00:36:39;;;;;;;10.80;7.90;;;;;;;10.27;100.00;101601.81;105876;1256;72673;-78
2024/04/08 00:39:06;;;;;;;10.60;8.10;;;;;;;10.25;100.00;101602.95;105781;1256;61807;-77
2024/04/08 00:41:32;;;;;;;11.50;8.10;;;;;;;10.23;100.00;101601.80;105840;1256;60443;-76
2024/04/08 00:43:59;;;;;;;13.60;8.30;;;;;;;10.21;100.00;101603.29;105659;1259;73839;-76
2024/04/08 00:46:26;;;;;;;17.10;8.40;;;;;;;10.18;100.00;101601.86;105721;1256;63643;-77
2024/04/08 00:48:53;;;;;;;9.50;8.20;;;;;;;10.15;100.00;101598.12;105798;1254;72705;-77
2024/04/08 00:51:19;;;;;;;8.90;7.70;;;;;;;10.11;100.00;101597.96;105815;1254;60863;-78
2024/04/08 00:53:48;;;;;;;11.70;8.20;;;;;;;10.05;100.00;101597.35;105834;1254;60444;-77
2024/04/08 00:56:17;;;;;;;11.10;9.10;;;;;;;10.00;100.00;101597.90;105847;1256;73875;-79
2024/04/08 00:58:44;;;;;;;10.10;8.20;;;;;;;9.95;100.00;101597.05;105803;1254;62637;-77
2024/04/08 01:01:15;;;;;;;11.30;8.20;;;;;;;9.90;100.00;101599.00;105998;1254;72520;-79
2024/04/08 01:03:46;;;;;;;14.80;8.80;;;;;;;9.85;100.00;101597.29;105958;1256;62005;-80
2024/04/08 01:06:12;;;;;;;11.10;8.90;;;;;;;9.79;100.00;101596.86;105888;1252;61208;-79
2024/04/08 01:08:40;;;;;;;12.00;10.40;;;;;;;9.74;100.00;101597.23;105828;1252;74677;-79
2024/04/08 01:11:07;;;;;;;15.40;10.40;;;;;;;9.69;100.00;101598.80;105767;1252;63979;-81
2024/04/08 01:13:34;;;;;;;10.60;8.50;;;;;;;9.67;100.00;101604.14;105849;1256;72642;-80
2024/04/08 01:16:04;;;;;;;13.40;9.90;;;;;;;9.67;100.00;101603.45;105873;1256;61224;-79
2024/04/08 01:18:31;;;;;;;11.20;9.00;;;;;;;9.66;100.00;101600.00;105819;1254;61894;-80
2024/04/08 01:20:59;;;;;;;11.30;9.30;;;;;;;9.64;100.00;101601.98;106538;1253;74709;-78
2024/04/08 01:23:27;;;;;;;11.60;8.90;;;;;;;9.62;100.00;101600.33;107412;1253;63666;-78
2024/04/08 01:25:55;;;;;;;12.80;8.90;;;;;;;9.61;100.00;101599.14;106214;1254;72787;-78
2024/04/08 01:28:22;;;;;;;12.20;8.90;;;;;;;9.61;100.00;101600.34;106058;1252;61336;-80
2024/04/08 01:30:52;;;;;;;10.00;7.90;;;;;;;9.62;100.00;101599.64;105825;1256;61186;-81
2024/04/08 01:33:19;;;;;;;10.90;7.80;;;;;;;9.61;100.00;101604.55;105821;1256;74711;-79
2024/04/08 01:35:46;;;;;;;12.00;8.00;;;;;;;9.57;100.00;101602.60;105935;1254;61166;-80
2024/04/08 01:38:12;;;;;;;9.60;8.60;;;;;;;9.54;100.00;101606.91;105959;1254;72596;-80
2024/04/08 01:40:39;;;;;;;11.60;8.00;;;;;;;9.50;100.00;101609.16;107441;1252;61951;-79
2024/04/08 01:43:06;;;;;;;12.80;8.30;;;;;;;9.48;100.00;101610.29;107057;1254;61249;-77
2024/04/08 01:45:33;;;;;;;13.50;8.30;;;;;;;9.46;100.00;101607.58;106342;1256;74682;-79
2024/04/08 01:48:00;;;;;;;14.00;9.50;;;;;;;9.45;100.00;101608.69;105916;1256;63719;-77
2024/04/08 01:50:27;;;;;;;10.60;7.50;;;;;;;9.42;100.00;101612.10;106337;1254;71728;-78
2024/04/08 01:52:55;;;;;;;9.60;7.90;;;;;;;9.41;100.00;101615.14;107121;1254;61362;-78
2024/04/08 01:55:22;;;;;;;11.50;8.10;;;;;;;9.37;100.00;101617.35;105875;1252;61243;-79
2024/04/08 01:57:50;;;;;;;10.40;8.10;;;;;;;9.36;100.00;101619.50;105864;1256;74444;-77
2024/04/08 02:00:17;;;;;;;10.60;8.20;;;;;;;9.34;100.00;101623.56;105855;1256;63855;-80
2024/04/08 02:02:43;;;;;;;15.80;9.30;;;;;;;9.34;100.00;101629.17;105888;1254;72826;-79
2024/04/08 02:05:10;;;;;;;10.20;8.40;;;;;;;9.33;100.00;101631.14;105869;1252;61279;-77
2024/04/08 02:07:39;;;;;;;13.00;8.70;;;;;;;9.32;100.00;101634.84;105883;1256;61346;-78
2024/04/08 02:10:06;;;;;;;13.40;8.90;;;;;;;9.30;100.00;101639.27;105922;1253;74625;-78
2024/04/08 02:12:33;;;;;;;10.10;7.50;;;;;;;9.27;100.00;101643.94;105783;1253;63648;-78
2024/04/08 02:14:59;;;;;;;10.60;8.30;;;;;;;9.24;100.00;101649.08;105770;1253;61282;-79
2024/04/08 02:17:27;;;;;;;14.20;9.10;;;;;;;9.22;100.00;101649.55;105775;1253;61151;-79
2024/04/08 02:19:54;;;;;;;13.10;9.20;;;;;;;9.18;100.00;101651.09;105846;1252;61273;-79
2024/04/08 02:22:21;;;;;;;13.70;8.20;;;;;;;9.15;100.00;101651.88;105881;1253;74669;-80
2024/04/08 02:24:48;;;;;;;14.80;9.60;;;;;;;9.13;100.00;101652.80;105848;1254;63978;-78
2024/04/08 02:27:14;;;;;;;11.60;8.10;;;;;;;9.11;100.00;101647.84;105837;1255;72739;-80
2024/04/08 02:29:42;;;;;;;12.30;8.50;;;;;;;9.09;100.00;101652.45;105947;1256;62622;-77
2024/04/08 02:32:10;;;;;;;11.90;8.50;;;;;;;9.08;100.00;101652.99;106001;1256;61161;-79
2024/04/08 02:34:36;;;;;;;15.40;8.60;;;;;;;9.06;100.00;101656.73;105858;1252;73742;-80
2024/04/08 02:37:03;;;;;;;9.00;7.90;;;;;;;9.05;100.00;101656.61;105904;1253;63950;-78
2024/04/08 02:39:30;;;;;;;17.20;10.00;;;;;;;9.03;100.00;101658.77;106023;1254;72351;-79
2024/04/08 02:41:57;;;;;;;17.90;8.70;;;;;;;9.02;100.00;101656.20;105792;1256;61246;-79
2024/04/08 02:44:24;;;;;;;15.10;9.30;;;;;;;9.01;100.00;101660.77;105882;1254;61224;-79
2024/04/08 02:46:50;;;;;;;14.20;8.20;;;;;;;9.01;100.00;101662.36;105765;1252;61291;-79
2024/04/08 02:49:17;;;;;;;13.20;9.60;;;;;;;9.01;100.00;101663.56;105789;1254;63798;-79
2024/04/08 02:51:44;;;;;;;14.00;9.60;;;;;;;9.00;100.00;101665.69;105897;1253;72562;-78
2024/04/08 02:54:10;;;;;;;22.40;10.30;;;;;;;8.98;100.00;101668.38;105949;1256;61343;-79
2024/04/08 02:56:37;;;;;;;17.10;8.50;;;;;;;8.98;100.00;101669.09;105868;1254;61256;-79
2024/04/08 02:59:04;;;;;;;13.50;8.10;;;;;;;8.98;100.00;101674.69;105830;1251;74012;-78
2024/04/08 03:01:32;;;;;;;11.70;8.90;;;;;;;8.96;100.00;101678.41;105779;1256;63998;-79
2024/04/08 03:03:58;;;;;;;13.70;8.10;;;;;;;8.92;100.00;101678.73;105783;1254;71798;-78
2024/04/08 03:06:28;;;;;;;15.30;10.10;;;;;;;8.89;100.00;101684.40;105921;1256;61218;-79
2024/04/08 03:08:55;;;;;;;13.90;8.80;;;;;;;8.87;100.00;101683.79;105856;1252;61250;-79
2024/04/08 03:11:22;;;;;;;16.40;8.80;;;;;;;8.84;100.00;101684.92;105829;1252;74583;-78
2024/04/08 03:13:53;;;;;;;12.40;8.40;;;;;;;8.82;100.00;101694.23;105821;1253;63807;-79
2024/04/08 03:16:20;;;;;;;10.70;8.00;;;;;;;8.79;100.00;101704.45;106365;1254;72708;-79
2024/04/08 03:18:46;;;;;;;10.60;8.90;;;;;;;8.76;100.00;101708.21;105863;1254;61288;-81
2024/04/08 03:21:13;;;;;;;14.80;11.20;;;;;;;8.75;100.00;101701.80;105806;1253;61442;-79
2024/04/08 03:23:41;;;;;;;14.20;10.40;;;;;;;8.76;100.00;101702.99;105980;1256;74612;-80
2024/04/08 03:26:08;;;;;;;15.80;9.60;;;;;;;8.77;100.00;101703.31;105930;1254;62273;-81
2024/04/08 03:28:35;;;;;;;17.00;9.60;;;;;;;8.79;100.00;101702.73;105937;1254;72618;-78
2024/04/08 03:31:03;;;;;;;36.60;12.90;;;;;;;8.82;100.00;101704.88;105882;1254;61318;-79
2024/04/08 03:33:30;;;;;;;51.00;13.50;;;;;;;8.86;100.00;101703.34;105799;1252;61343;-79
2024/04/08 03:35:56;;;;;;;30.80;13.00;;;;;;;8.88;100.00;101704.32;105719;1254;74763;-81
2024/04/08 03:38:23;;;;;;;26.90;12.90;;;;;;;8.91;100.00;101703.67;105834;1253;63117;-80
2024/04/08 03:41:00;;;;;;;18.90;12.80;;;;;;;8.95;100.00;101702.15;106315;1252;72592;-80
2024/04/08 03:43:28;;;;;;;20.50;13.50;;;;;;;9.02;100.00;101702.77;105845;1255;61713;-78
2024/04/08 03:45:55;;;;;;;22.10;13.00;;;;;;;9.12;100.00;101704.86;105845;1253;61286;-79
2024/04/08 03:48:22;;;;;;;16.10;12.20;;;;;;;9.25;100.00;101705.77;105875;1254;74679;-80
2024/04/08 03:50:49;;;;;;;17.50;12.10;;;;;;;9.38;100.00;101712.43;105923;1253;62724;-79
2024/04/08 03:53:16;;;;;;;18.50;12.20;;;;;;;9.49;100.00;101717.25;105957;1256;72477;-80
2024/04/08 03:55:43;;;;;;;19.80;12.20;;;;;;;9.59;100.00;101715.49;106015;1256;61327;-81
2024/04/08 03:58:10;;;;;;;22.80;12.50;;;;;;;9.67;100.00;101714.30;106004;1256;61158;-80
2024/04/08 04:00:37;;;;;;;23.80;11.60;;;;;;;9.76;100.00;101712.38;105984;1252;73454;-81
2024/04/08 04:03:04;;;;;;;21.60;14.90;;;;;;;9.85;100.00;101710.83;105904;1256;63701;-81
2024/04/08 04:05:33;;;;;;;19.90;14.30;;;;;;;9.95;100.00;101707.80;105760;1256;71311;-80
2024/04/08 04:08:00;;;;;;;23.50;12.60;;;;;;;10.05;100.00;101707.94;105873;1253;62002;-80
2024/04/08 04:10:27;;;;;;;21.00;13.60;;;;;;;10.13;100.00;101716.88;105772;1254;61240;-80
2024/04/08 04:12:53;;;;;;;26.80;14.50;;;;;;;10.19;100.00;101727.10;105850;1256;74442;-78
2024/04/08 04:15:20;;;;;;;18.50;14.20;;;;;;;10.26;100.00;101725.25;105863;1256;63619;-81
2024/04/08 04:17:47;;;;;;;20.50;14.00;;;;;;;10.33;100.00;101720.45;105844;1254;72668;-82
2024/04/08 04:20:15;;;;;;;19.00;14.10;;;;;;;10.43;100.00;101720.02;105861;1254;62008;-79
2024/04/08 04:22:44;;;;;;;17.80;12.80;;;;;;;10.54;100.00;101717.14;105893;1254;61973;-80
2024/04/08 04:25:11;;;;;;;27.10;14.20;;;;;;;10.66;100.00;101714.19;105884;1256;74369;-78
2024/04/08 04:27:38;;;;;;;20.10;14.30;;;;;;;10.80;100.00;101714.44;105813;1254;62714;-78
2024/04/08 04:30:05;;;;;;;20.40;14.20;;;;;;;10.95;100.00;101710.63;105870;1256;61232;-80
2024/04/08 04:32:32;;;;;;;22.40;14.70;;;;;;;11.11;100.00;101710.48;105823;1256;63193;-80
2024/04/08 04:34:59;;;;;;;21.10;14.30;;;;;;;11.28;100.00;101711.61;105988;1253;61202;-81
2024/04/08 04:37:25;;;;;;;27.10;14.00;;;;;;;11.45;100.00;101711.36;105834;1254;73353;-82
2024/04/08 04:39:52;;;;;;;30.10;15.00;;;;;;;11.66;100.00;101717.91;106470;1256;63936;-79
2024/04/08 04:42:20;;;;;;;26.70;19.90;;;;;;;11.92;100.00;101717.40;106238;1254;71305;-80
2024/04/08 04:44:46;;;;;;;25.90;14.40;;;;;;;12.20;100.00;101712.39;105828;1254;61729;-82
2024/04/08 04:47:13;;;;;;;35.00;15.30;;;;;;;12.47;100.00;101712.27;105808;1252;61375;-81
2024/04/08 04:49:40;;;;;;;19.20;12.20;;;;;;;12.74;100.00;101712.63;105914;1252;73209;-79
2024/04/08 04:52:06;;;;;;;20.60;12.20;;;;;;;13.05;100.00;101712.13;105933;1253;61362;-80
2024/04/08 04:54:33;;;;;;;15.30;10.50;;;;;;;13.42;100.00;101711.55;105848;1256;72571;-80
2024/04/08 04:57:00;;;;;;;16.70;11.30;;;;;;;13.94;100.00;101709.05;105870;1256;61817;-79
2024/04/08 04:59:27;;;;;;;14.70;10.30;;;;;;;14.56;100.00;101712.33;105899;1254;61250;-82
2024/04/08 05:01:53;;;;;;;14.90;9.70;;;;;;;15.23;100.00;101712.32;105847;1255;74575;-81
2024/04/08 05:04:20;;;;;;;14.20;9.90;;;;;;;15.91;100.00;101715.99;105801;1256;64350;-80
2024/04/08 05:06:47;;;;;;;12.30;9.20;;;;;;;16.58;100.00;101712.05;105885;1252;72671;-81
2024/04/08 05:09:14;;;;;;;9.10;8.10;;;;;;;17.24;100.00;101715.86;105970;1256;61216;-81
2024/04/08 05:11:41;;;;;;;10.60;8.30;;;;;;;17.86;100.00;101715.66;105845;1256;61150;-82
2024/04/08 05:14:07;;;;;;;8.30;7.20;;;;;;;18.45;100.00;101717.82;105824;1256;74636;-82
2024/04/08 05:16:35;;;;;;;10.70;7.00;;;;;;;19.01;100.00;101718.15;105917;1255;62534;-82
2024/04/08 05:19:01;;;;;;;12.20;8.00;;;;;;;19.55;100.00;101717.41;105874;1253;72542;-82
2024/04/08 05:21:28;;;;;;;11.60;7.30;;;;;;;20.07;100.00;101715.00;105788;1257;61228;-82
2024/04/08 05:23:57;;;;;;;8.90;7.80;;;;;;;20.57;100.00;101711.21;105923;1254;61269;-82
2024/04/08 05:26:24;;;;;;;10.00;7.50;;;;;;;21.03;95.02;101710.27;105856;1256;74718;-82
2024/04/08 05:28:51;;;;;;;7.70;6.90;;;;;;;21.47;88.23;101709.94;105811;1256;63809;-78
2024/04/08 05:31:18;;;;;;;8.20;7.00;;;;;;;21.93;82.31;101717.50;106046;1254;72540;-82
2024/04/08 05:33:47;;;;;;;7.50;6.20;;;;;;;22.34;76.24;101723.16;105819;1257;61135;-81
2024/04/08 05:36:14;;;;;;;8.80;6.70;;;;;;;22.71;71.05;101722.73;105863;1254;61346;-80
2024/04/08 05:38:41;;;;;;;7.80;7.10;;;;;;;23.07;67.99;101721.20;106151;1254;75678;-78
2024/04/08 05:41:08;;;;;;;7.40;6.70;;;;;;;23.42;64.88;101721.14;105982;1256;64179;-82
2024/04/08 05:43:34;;;;;;;8.80;6.80;;;;;;;23.79;62.24;101714.34;105952;1254;71400;-82
2024/04/08 05:46:02;;;;;;;8.70;6.40;;;;;;;24.17;59.22;101712.34;105892;1256;62874;-83
2024/04/08 05:48:29;;;;;;;7.60;6.50;;;;;;;24.54;56.42;101705.40;106066;1252;61210;-81
2024/04/08 05:50:56;;;;;;;7.30;6.60;;;;;;;24.91;54.78;101711.82;106392;1252;74554;-81
2024/04/08 05:53:24;;;;;;;8.50;6.80;;;;;;;25.24;52.32;101710.59;106160;1256;65199;-82
2024/04/08 05:55:51;;;;;;;7.00;6.30;;;;;;;25.55;50.34;101711.80;105992;1254;72609;-80
2024/04/08 05:58:18;;;;;;;13.10;6.40;;;;;;;25.87;49.25;101708.67;106015;1253;61247;-83
2024/04/08 06:00:45;;;;;;;6.90;6.10;;;;;;;26.15;48.02;101711.12;105807;1256;61273;-82
2024/04/08 06:03:12;;;;;;;9.20;6.40;;;;;;;26.39;46.74;101716.66;105877;1255;73401;-81
2024/04/08 06:05:40;;;;;;;10.40;6.10;;;;;;;26.61;45.28;101713.89;105860;1253;62379;-80
2024/04/08 06:08:07;;;;;;;10.20;5.50;;;;;;;26.83;45.61;101723.62;106011;1254;72871;-81
2024/04/08 06:10:38;;;;;;;6.00;5.40;;;;;;;26.96;43.64;101724.42;105715;1259;61221;-84
2024/04/08 06:13:06;;;;;;;9.20;6.00;;;;;;;26.92;43.14;101730.48;105836;1256;61244;-80
2024/04/08 06:15:33;;;;;;;6.20;5.60;;;;;;;26.77;42.95;101732.20;105908;1253;75116;-83
2024/04/08 06:18:00;;;;;;;8.20;5.50;;;;;;;26.58;43.94;101736.08;105868;1256;62894;-81
2024/04/08 06:20:27;;;;;;;7.60;5.70;;;;;;;26.59;44.05;101742.44;105841;1254;72376;-81
2024/04/08 06:22:54;;;;;;;6.80;6.20;;;;;;;26.70;44.14;101745.13;105923;1256;61164;-82
2024/04/08 06:25:21;;;;;;;7.00;6.40;;;;;;;26.74;43.86;101741.36;105805;1256;61156;-83
2024/04/08 06:28:03;;;;;;;8.00;7.30;;;;;;;26.79;44.06;101745.32;105889;1256;75945;-83
2024/04/08 06:30:30;;;;;;;7.30;6.70;;;;;;;26.85;43.03;101751.80;105895;1256;63740;-80
2024/04/08 06:32:57;;;;;;;8.30;7.50;;;;;;;26.90;42.94;101752.96;105858;1254;73515;-81
2024/04/08 06:35:24;;;;;;;6.70;5.90;;;;;;;27.04;42.34;101756.70;105799;1254;61243;-82
2024/04/08 06:37:51;;;;;;;7.20;6.40;;;;;;;27.14;42.51;101758.35;105910;1254;61463;-82
2024/04/08 06:40:18;;;;;;;7.10;6.40;;;;;;;27.34;42.16;101758.27;105887;1254;74635;-81
2024/04/08 06:42:45;;;;;;;8.90;5.90;;;;;;;27.64;41.52;101750.17;105917;1253;63894;-80
2024/04/08 06:45:11;;;;;;;7.50;6.10;;;;;;;27.90;40.37;101746.38;105869;1256;73887;-81
2024/04/08 06:47:39;;;;;;;8.60;6.00;;;;;;;28.06;39.78;101745.60;105849;1256;61170;-83
2024/04/08 06:50:06;;;;;;;8.60;5.80;;;;;;;28.28;39.57;101746.20;105943;1254;61131;-84
2024/04/08 06:52:36;;;;;;;10.60;5.50;;;;;;;28.54;38.34;101745.86;106024;1256;74521;-80
2024/04/08 06:55:03;;;;;;;6.20;5.70;;;;;;;28.84;38.31;101744.98;105837;1256;63963;-81
2024/04/08 06:57:30;;;;;;;8.60;5.60;;;;;;;29.10;37.42;101744.67;105809;1254;74333;-81
2024/04/08 06:59:57;;;;;;;6.00;5.60;;;;;;;29.30;37.27;101752.75;105915;1254;61241;-80
2024/04/08 07:02:24;;;;;;;9.80;5.50;;;;;;;29.51;36.79;101754.55;105867;1256;61321;-78
2024/04/08 07:04:50;;;;;;;7.20;5.90;;;;;;;29.73;36.64;101755.41;105810;1252;75655;-81
2024/04/08 07:07:17;;;;;;;10.60;5.60;;;;;;;30.00;36.05;101752.88;105767;1256;63919;-80
2024/04/08 07:09:44;;;;;;;8.80;5.30;;;;;;;30.22;35.34;101749.12;105906;1257;72831;-79
2024/04/08 07:12:10;;;;;;;5.60;4.80;;;;;;;30.27;34.97;101749.30;105748;1256;61237;-81
2024/04/08 07:14:38;;;;;;;4.20;3.80;;;;;;;30.39;34.62;101746.17;105872;1254;61334;-82
2024/04/08 07:17:05;;;;;;;6.20;4.10;;;;;;;30.55;34.46;101746.96;105753;1255;74752;-82
2024/04/08 07:19:33;;;;;;;5.00;3.50;;;;;;;30.64;33.85;101746.78;105804;1256;63939;-83
2024/04/08 07:22:00;;;;;;;8.30;3.80;;;;;;;30.69;33.24;101749.89;105832;1254;72771;-84
2024/04/08 07:24:27;;;;;;;4.70;2.90;;;;;;;30.79;32.65;101751.20;105903;1253;61387;-82
2024/04/08 07:26:54;;;;;;;6.40;3.70;;;;;;;30.76;32.84;101754.86;106000;1256;61100;-81
2024/04/08 07:29:20;;;;;;;4.10;2.50;;;;;;;30.87;32.53;101745.48;105880;1254;74651;-81
2024/04/08 07:31:48;;;;;;;2.80;2.40;;;;;;;31.07;31.93;101742.39;105921;1252;62841;-80
2024/04/08 07:34:14;;;;;;;3.10;2.70;;;;;;;31.26;31.64;101745.23;105829;1254;74279;-80
2024/04/08 07:36:41;;;;;;;2.70;2.40;;;;;;;31.33;31.69;101743.91;105883;1256;61243;-81
2024/04/08 07:39:10;;;;;;;2.90;2.60;;;;;;;31.26;31.55;101742.95;105922;1256;61223;-82
2024/04/08 07:41:40;;;;;;;4.10;2.70;;;;;;;31.30;31.81;101741.89;105834;1253;75835;-81
2024/04/08 07:44:07;;;;;;;4.30;2.20;;;;;;;31.40;31.47;101736.17;105783;1256;63666;-82
2024/04/08 07:46:35;;;;;;;5.80;2.80;;;;;;;31.59;30.83;101731.08;105840;1254;74163;-82
2024/04/08 07:49:02;;;;;;;5.90;3.10;;;;;;;31.77;30.24;101728.91;105895;1254;61320;-81
2024/04/08 07:51:29;;;;;;;8.90;3.70;;;;;;;31.83;30.11;101726.71;106109;1254;61560;-82
2024/04/08 07:53:56;;;;;;;4.30;2.80;;;;;;;31.94;30.48;101723.83;106060;1256;74616;-84
2024/04/08 07:56:23;;;;;;;7.10;3.80;;;;;;;32.07;29.67;101720.92;105790;1254;63733;-83
2024/04/08 07:58:51;;;;;;;9.70;4.50;;;;;;;32.14;29.60;101716.84;105816;1254;73694;-82
2024/04/08 08:01:18;;;;;;;7.00;3.70;;;;;;;32.16;30.02;101713.62;105884;1256;61237;-83
2024/04/08 08:03:45;;;;;;;6.00;4.00;;;;;;;32.26;29.99;101714.92;105844;1256;61148;-83
2024/04/08 08:06:13;;;;;;;8.60;4.20;;;;;;;32.30;29.29;101708.27;105698;1252;73394;-81
2024/04/08 08:08:41;;;;;;;8.50;3.90;;;;;;;32.52;28.86;101711.19;105868;1256;63783;-81
2024/04/08 08:11:08;;;;;;;11.60;4.90;;;;;;;32.67;28.96;101711.05;105825;1256;72587;-81
2024/04/08 08:13:35;;;;;;;9.60;4.60;;;;;;;32.66;29.11;101709.00;105865;1256;61240;-81
2024/04/08 08:16:02;;;;;;;7.40;4.70;;;;;;;32.66;29.01;101706.84;105881;1251;61401;-81
2024/04/08 08:18:31;;;;;;;8.50;5.00;;;;;;;32.68;28.93;101702.22;105967;1256;74714;-81
2024/04/08 08:21:00;;;;;;;10.40;5.50;;;;;;;32.75;28.73;101694.46;105827;1256;63622;-83
2024/04/08 08:23:28;;;;;;;12.20;5.10;;;;;;;32.91;28.56;101692.08;105808;1254;71802;-84
2024/04/08 08:25:56;;;;;;;9.20;4.40;;;;;;;33.05;28.73;101690.33;105801;1254;61270;-80
2024/04/08 08:28:24;;;;;;;9.40;4.70;;;;;;;33.21;28.85;101687.60;105862;1254;60246;-79
2024/04/08 08:30:52;;;;;;;9.60;5.30;;;;;;;33.39;28.12;101685.58;105823;1254;74899;-80
2024/04/08 08:33:21;;;;;;;15.30;5.50;;;;;;;33.48;27.56;101680.88;105865;1256;65048;-82
2024/04/08 08:35:49;;;;;;;10.10;5.50;;;;;;;33.32;27.42;101677.83;105857;1256;72809;-82
2024/04/08 08:38:16;;;;;;;13.50;5.70;;;;;;;32.98;27.62;101671.23;105791;1256;61173;-82
2024/04/08 08:40:44;;;;;;;8.10;5.60;;;;;;;32.88;27.97;101672.62;105945;1252;61098;-83
2024/04/08 08:43:11;;;;;;;9.40;5.80;;;;;;;32.93;28.07;101673.30;105919;1253;74585;-82
2024/04/08 08:45:41;;;;;;;9.50;5.70;;;;;;;33.00;27.82;101673.23;105893;1256;65283;-82
2024/04/08 08:48:08;;;;;;;14.80;5.00;;;;;;;33.14;27.79;101669.56;105804;1256;73928;-83
2024/04/08 08:50:36;;;;;;;7.10;4.90;;;;;;;33.43;28.02;101669.96;105950;1256;61503;-84
2024/04/08 08:53:06;;;;;;;12.00;5.00;;;;;;;33.77;27.46;101670.50;106499;1252;61247;-82
2024/04/08 08:55:33;;;;;;;7.60;4.30;;;;;;;33.92;27.13;101668.70;106273;1259;76020;-84
2024/04/08 08:58:00;;;;;;;6.00;3.60;;;;;;;33.96;26.65;101666.05;106276;1254;63711;-83
2024/04/08 09:00:31;;;;;;;4.90;2.40;;;;;;;34.04;26.86;101659.61;105895;1256;72474;-84
2024/04/08 09:02:59;;;;;;;7.90;3.50;;;;;;;34.19;26.25;101655.81;106338;1256;61569;-82
2024/04/08 09:05:26;;;;;;;6.20;2.90;;;;;;;34.18;25.86;101652.13;106221;1259;61336;-83
2024/04/08 09:07:52;;;;;;;4.00;2.10;;;;;;;34.24;25.63;101648.85;106046;1256;74216;-82
2024/04/08 09:12:43;;;;;;;3.00;2.40;;;;;;;34.41;25.08;101646.63;103257;1290;601965;-82
2024/04/08 09:15:12;;;;;;;4.60;2.50;;;;;;;34.59;25.67;101646.69;105459;1267;60264;-84
2024/04/08 09:17:39;;;;;;;3.00;1.70;;;;;;;34.76;25.13;101644.32;105677;1258;60377;-84
2024/04/08 09:20:08;;;;;;;2.70;2.10;;;;;;;34.89;24.66;101637.37;105535;1263;72600;-82
2024/04/08 09:22:35;;;;;;;5.70;2.60;;;;;;;35.01;24.46;101636.66;105539;1265;65487;-81
2024/04/08 09:25:02;;;;;;;2.30;1.80;;;;;;;35.09;24.46;101632.58;105550;1266;220392;-82
2024/04/08 09:27:30;;;;;;;5.50;2.10;;;;;;;35.19;24.75;101633.60;106174;1260;60368;-82
2024/04/08 09:29:56;;;;;;;3.20;1.30;;;;;;;35.22;24.25;101628.55;105730;1260;60033;-82
2024/04/08 09:32:25;;;;;;;2.50;1.20;;;;;;;35.10;24.19;101629.42;105866;1257;74253;-83
2024/04/08 09:34:51;;;;;;;3.30;1.60;;;;;;;34.95;23.80;101620.81;107005;1263;64414;-81
2024/04/08 09:37:18;;;;;;;3.20;1.90;;;;;;;34.97;23.70;101621.78;106137;1259;71712;-81
2024/04/08 09:39:45;;;;;;;2.60;2.30;;;;;;;34.99;23.56;101622.52;106858;1251;60408;-82
2024/04/08 09:42:12;;;;;;;11.40;3.10;;;;;;;35.04;24.02;101620.73;106701;1256;61419;-84
2024/04/08 09:44:40;;;;;;;9.00;3.20;;;;;;;35.09;23.84;101623.64;106359;1251;72837;-82
2024/04/08 09:47:19;;;;;;;5.50;2.80;;;;;;;35.12;23.44;101622.68;106801;1257;62621;-81
2024/04/08 09:49:53;;;;;;;4.60;2.70;;;;;;;35.07;23.63;101622.90;106771;1251;72399;-82
2024/04/08 09:52:20;;;;;;;4.90;3.20;;;;;;;35.07;23.24;101621.02;106595;1251;60497;-80
2024/04/08 09:54:47;;;;;;;4.80;3.00;;;;;;;35.12;23.27;101619.99;106316;1256;60446;-82
2024/04/08 09:57:15;;;;;;;2.50;1.50;;;;;;;35.08;23.14;101611.02;106907;1251;75475;-83
2024/04/08 09:59:42;;;;;;;2.30;2.10;;;;;;;35.07;21.98;101609.58;107172;1254;64203;-82
2024/04/08 10:02:15;;;;;;;2.90;2.00;;;;;;;34.95;22.32;101610.45;106511;1257;73856;-80
2024/04/08 10:04:42;;;;;;;2.30;2.10;;;;;;;34.93;23.07;101609.35;106619;1256;60495;-82
2024/04/08 10:07:10;;;;;;;3.70;2.10;;;;;;;35.05;22.71;101604.34;106624;1252;60412;-79
2024/04/08 10:09:37;;;;;;;8.50;2.80;;;;;;;35.11;21.33;101610.55;106695;1251;73501;-83
2024/04/08 10:12:04;;;;;;;5.10;3.90;;;;;;;35.06;21.15;101604.20;106655;1257;63838;-81
2024/04/08 10:14:33;;;;;;;8.60;6.30;;;;;;;35.01;21.57;101603.73;106914;1251;72528;-82
2024/04/08 10:17:00;;;;;;;10.00;6.10;;;;;;;34.96;22.09;101594.29;106774;1251;60596;-80
2024/04/08 10:19:26;;;;;;;7.10;5.60;;;;;;;34.98;21.66;101591.83;106582;1252;61667;-82
2024/04/08 10:21:58;;;;;;;7.90;4.70;;;;;;;35.03;21.76;101591.58;106344;1256;74990;-81
2024/04/08 10:24:29;;;;;;;;;;;;;;;35.06;21.33;101589.36;106728;1256;62717;-82
2024/04/08 10:27:07;;;;;;;3.80;2.20;;;;;;;35.00;19.60;101584.80;106024;1256;73073;-84
2024/04/08 10:29:38;;;;;;;7.70;3.20;;;;;;;34.94;20.19;101584.38;106311;1256;60526;-82
2024/04/08 10:32:09;;;;;;;5.40;3.10;;;;;;;34.90;21.03;101583.16;106503;1251;61335;-82
2024/04/08 10:34:38;;;;;;;6.30;3.80;;;;;;;34.91;20.80;101585.75;106657;1251;75084;-81
2024/04/08 10:37:04;;;;;;;1.70;1.00;;;;;;;34.91;20.55;101582.36;106483;1257;64899;-83
2024/04/08 10:39:32;;;;;;;3.70;1.20;;;;;;;34.73;20.25;101580.50;106324;1257;72706;-80
2024/04/08 10:42:12;;;;;;;3.00;1.70;;;;;;;34.67;20.83;101576.30;106107;1257;60649;-82
2024/04/08 10:44:39;;;;;;;4.10;2.10;;;;;;;34.58;20.95;101570.27;106293;1256;61337;-82
2024/04/08 10:47:07;;;;;;;1.70;1.10;;;;;;;34.51;20.17;101571.69;106974;1251;73018;-83
2024/04/08 10:49:37;;;;;;;2.60;1.80;;;;;;;34.36;19.74;101559.93;106406;1256;64834;-82
2024/04/08 10:52:04;;;;;;;3.70;1.70;;;;;;;34.17;19.69;101560.14;105920;1259;72765;-82
2024/04/08 10:54:31;;;;;;;3.10;1.50;;;;;;;34.07;19.83;101558.44;106285;1256;61934;-82
2024/04/08 10:56:58;;;;;;;1.60;1.00;;;;;;;33.98;19.85;101557.84;106523;1255;60415;-81
2024/04/08 10:59:26;;;;;;;2.50;0.90;;;;;;;34.03;19.88;101554.12;106093;1255;74817;-81
2024/04/08 11:01:54;;;;;;;5.30;1.00;;;;;;;34.00;19.97;101550.38;106181;1256;63759;-81
2024/04/08 11:04:22;;;;;;;1.10;1.00;;;;;;;33.94;19.64;101555.25;106066;1257;73522;-80
2024/04/08 11:06:49;;;;;;;3.80;1.70;;;;;;;33.92;20.28;101553.39;106080;1257;60465;-79
2024/04/08 11:09:16;;;;;;;4.00;1.90;;;;;;;33.80;20.46;101552.16;106062;1257;60421;-82
2024/04/08 11:11:43;;;;;;;2.20;2.00;;;;;;;33.70;21.17;101543.94;106953;1256;74039;-80
2024/04/08 11:14:10;;;;;;;3.40;1.70;;;;;;;33.65;21.10;101538.19;106073;1255;65028;-82